createdAt,value
2022-09-17T00:04:58.632Z,8.43
2022-09-17T00:10:00.366Z,8.54
2022-09-17T00:15:02.106Z,8.68
2022-09-17T00:20:05.426Z,8.78
2022-09-17T00:25:08.647Z,8.86
2022-09-17T00:30:11.527Z,8.90
2022-09-17T00:35:13.256Z,8.96
2022-09-17T00:40:15.129Z,9.01
2022-09-17T00:45:16.948Z,9.10
2022-09-17T00:50:29.523Z,9.16
2022-09-17T00:55:33.219Z,9.18
2022-09-17T01:00:35.263Z,9.17
2022-09-17T01:05:49.231Z,9.22
2022-09-17T01:11:01.775Z,9.25
2022-09-17T01:16:07.518Z,9.25
2022-09-17T01:21:39.299Z,9.28
2022-09-17T01:27:05.973Z,9.30
2022-09-17T01:32:26.833Z,9.30
2022-09-17T01:37:41.797Z,9.29
2022-09-17T01:42:49.725Z,9.28
2022-09-17T01:47:54.020Z,9.29
2022-09-17T01:52:57.576Z,9.28
2022-09-17T01:58:19.361Z,9.31
2022-09-17T02:03:30.642Z,9.29
2022-09-17T02:08:39.784Z,9.28
2022-09-17T02:13:47.989Z,9.29
2022-09-17T02:18:53.667Z,9.29
2022-09-17T02:24:12.164Z,9.27
2022-09-17T02:29:42.481Z,9.26
2022-09-17T02:34:44.248Z,9.27
2022-09-17T02:39:46.112Z,9.29
2022-09-17T02:45:08.710Z,9.21
2022-09-17T02:50:36.159Z,8.96
2022-09-17T02:55:57.884Z,8.55
2022-09-17T03:01:07.610Z,8.33
2022-09-17T03:06:13.393Z,8.28
2022-09-17T03:11:15.234Z,8.22
2022-09-17T03:16:17.038Z,8.14
2022-09-17T03:21:18.778Z,8.07
2022-09-17T03:26:20.601Z,8.04
2022-09-17T03:31:22.368Z,8.00
2022-09-17T03:36:24.328Z,8.02
2022-09-17T03:41:26.903Z,8.03
2022-09-17T03:46:28.738Z,7.96
2022-09-17T03:51:30.995Z,7.94
2022-09-17T03:56:34.211Z,8.02
2022-09-17T04:01:36.383Z,8.00
2022-09-17T04:06:38.197Z,7.98
2022-09-17T04:11:39.962Z,7.98
2022-09-17T04:16:41.706Z,7.94
2022-09-17T04:21:43.472Z,7.99
2022-09-17T04:26:45.228Z,8.04
2022-09-17T04:31:47.062Z,8.14
2022-09-17T04:36:48.709Z,8.15
2022-09-17T04:41:50.350Z,8.15
2022-09-17T04:46:52.074Z,8.16
2022-09-17T04:51:53.716Z,8.19
2022-09-17T04:56:55.344Z,8.22
2022-09-17T05:01:57.044Z,8.23
2022-09-17T05:06:58.636Z,8.20
2022-09-17T05:12:00.344Z,8.19
2022-09-17T05:17:01.932Z,8.23
2022-09-17T05:22:03.521Z,8.28
2022-09-17T05:27:06.842Z,8.31
2022-09-17T05:32:08.407Z,8.29
2022-09-17T05:37:13.893Z,8.28
2022-09-17T05:42:15.473Z,8.25
2022-09-17T05:47:17.136Z,8.28
2022-09-17T05:52:19.472Z,8.36
2022-09-17T05:57:21.019Z,8.40
2022-09-17T06:02:22.702Z,8.40
2022-09-17T06:07:24.307Z,8.42
2022-09-17T06:12:25.889Z,8.47
2022-09-17T06:17:27.459Z,8.46
2022-09-17T06:22:29.074Z,8.52
2022-09-17T06:27:32.844Z,8.64
2022-09-17T06:32:34.443Z,8.65
2022-09-17T06:37:40.109Z,8.70
2022-09-17T06:42:41.670Z,8.75
2022-09-17T06:47:43.228Z,8.88
2022-09-17T06:52:52.118Z,8.90
2022-09-17T06:57:54.052Z,8.96
2022-09-17T07:03:00.710Z,9.11
2022-09-17T07:08:03.354Z,9.31
2022-09-17T07:13:05.014Z,9.30
2022-09-17T07:18:11.323Z,9.36
2022-09-17T07:23:14.696Z,9.47
2022-09-17T07:28:16.280Z,9.47
2022-09-17T07:33:23.371Z,9.65
2022-09-17T07:38:25.746Z,9.87
2022-09-17T07:43:28.712Z,9.98
2022-09-17T07:48:30.726Z,10.07
2022-09-17T07:53:33.053Z,10.17
2022-09-17T07:58:36.689Z,10.21
2022-09-17T08:03:39.967Z,10.29
2022-09-17T08:08:42.269Z,10.57
2022-09-17T08:13:47.258Z,10.60
2022-09-17T08:18:49.794Z,10.86
2022-09-17T08:23:51.430Z,11.02
2022-09-17T08:28:55.577Z,11.00
2022-09-17T08:33:57.354Z,11.40
2022-09-17T08:38:58.954Z,11.69
2022-09-17T08:44:26.942Z,11.36
2022-09-17T08:49:47.938Z,11.28
2022-09-17T08:55:37.199Z,11.44
2022-09-17T09:00:50.114Z,11.24
2022-09-17T09:05:53.087Z,11.49
2022-09-17T09:11:00.102Z,11.97
2022-09-17T09:16:06.829Z,12.09
2022-09-17T09:21:23.543Z,12.43
2022-09-17T09:26:44.913Z,13.12
2022-09-17T09:32:15.528Z,13.10
2022-09-17T09:37:26.800Z,12.74
2022-09-17T09:42:38.212Z,12.79
2022-09-17T09:47:40.150Z,11.57
2022-09-17T09:52:44.666Z,10.34
2022-09-17T09:57:48.645Z,10.38
2022-09-17T10:02:54.002Z,10.31
2022-09-17T10:07:55.756Z,11.19
2022-09-17T10:13:07.529Z,12.07
2022-09-17T10:18:20.821Z,11.88
2022-09-17T10:23:24.039Z,11.64
2022-09-17T10:28:34.177Z,11.43
2022-09-17T10:33:39.767Z,11.62
2022-09-17T10:38:49.286Z,12.13
2022-09-17T10:43:51.799Z,12.88
2022-09-17T10:49:35.545Z,13.42
2022-09-17T10:54:58.928Z,13.25
2022-09-17T11:00:16.091Z,14.24
2022-09-17T11:05:58.360Z,16.18
2022-09-17T11:11:09.595Z,14.69
2022-09-17T11:16:39.470Z,15.36
2022-09-17T11:21:51.230Z,16.08
2022-09-17T11:27:01.765Z,15.78
2022-09-17T11:32:44.083Z,14.11
2022-09-17T11:37:54.654Z,14.93
2022-09-17T11:43:07.565Z,14.08
2022-09-17T11:48:23.127Z,13.77
2022-09-17T11:53:38.032Z,14.43
2022-09-17T11:58:48.149Z,16.02
2022-09-17T12:04:01.392Z,13.92
2022-09-17T12:09:16.025Z,12.60
2022-09-17T12:14:26.487Z,12.18
2022-09-17T12:19:32.643Z,12.41
2022-09-17T12:24:34.304Z,13.84
2022-09-17T12:30:00.865Z,13.06
2022-09-17T12:36:00.138Z,13.86
2022-09-17T12:41:18.370Z,15.20
2022-09-17T12:46:38.194Z,12.67
2022-09-17T12:51:53.583Z,10.91
2022-09-17T12:57:16.426Z,11.73
2022-09-17T13:02:46.888Z,14.22
2022-09-17T13:08:20.925Z,15.32
2022-09-17T13:13:25.463Z,16.13
2022-09-17T13:18:32.537Z,16.56
2022-09-17T13:23:45.554Z,15.77
2022-09-17T13:28:49.762Z,16.73
2022-09-17T13:33:59.897Z,18.85
2022-09-17T13:39:02.881Z,17.79
2022-09-17T13:44:06.649Z,19.34
2022-09-17T13:49:17.588Z,18.28
2022-09-17T13:54:22.520Z,17.30
2022-09-17T13:59:27.957Z,20.11
2022-09-17T14:04:41.859Z,23.46
2022-09-17T14:09:54.676Z,17.37
2022-09-17T14:14:56.560Z,12.18
2022-09-17T14:19:58.708Z,11.35
2022-09-17T14:25:01.816Z,11.38
2022-09-17T14:30:13.886Z,11.32
2022-09-17T14:35:24.258Z,11.14
2022-09-17T14:40:27.032Z,12.05
2022-09-17T14:45:42.646Z,12.25
2022-09-17T14:50:45.023Z,12.01
2022-09-17T14:55:49.667Z,11.83
2022-09-17T15:00:53.119Z,11.74
2022-09-17T15:05:55.050Z,11.81
2022-09-17T15:11:00.018Z,11.93
2022-09-17T15:16:26.910Z,11.93
2022-09-17T15:21:34.847Z,11.97
2022-09-17T15:26:40.032Z,12.06
2022-09-17T15:31:42.091Z,11.98
2022-09-17T15:37:19.518Z,11.89
2022-09-17T15:42:27.897Z,11.97
2022-09-17T15:47:55.085Z,11.97
2022-09-17T15:53:08.966Z,12.45
2022-09-17T15:58:25.953Z,12.20
2022-09-17T16:03:39.825Z,11.91
2022-09-17T16:08:42.480Z,11.61
2022-09-17T16:13:46.482Z,11.39
2022-09-17T16:18:49.210Z,11.20
2022-09-17T16:23:53.942Z,11.06
2022-09-17T16:29:02.590Z,10.72
2022-09-17T16:34:04.903Z,10.39
2022-09-17T16:39:06.564Z,10.07
2022-09-17T16:44:08.269Z,9.91
2022-09-17T16:49:09.835Z,9.74
2022-09-17T16:54:11.440Z,9.56
2022-09-17T16:59:13.005Z,9.35
2022-09-17T17:04:14.611Z,9.27
2022-09-17T17:09:16.218Z,8.98
2022-09-17T17:14:20.140Z,8.76
2022-09-17T17:19:25.093Z,8.59
2022-09-17T17:24:26.758Z,8.38
2022-09-17T17:29:28.330Z,8.28
2022-09-17T17:34:30.974Z,8.24
2022-09-17T17:39:32.560Z,8.24
2022-09-17T17:44:34.615Z,8.22
2022-09-17T17:49:36.241Z,8.15
2022-09-17T17:54:37.889Z,8.04
2022-09-17T17:59:39.573Z,8.08
2022-09-17T18:04:41.155Z,8.08
2022-09-17T18:09:42.928Z,8.03
2022-09-17T18:14:44.518Z,8.04
2022-09-17T18:19:46.099Z,8.01
2022-09-17T18:24:47.727Z,8.06
2022-09-17T18:29:49.337Z,8.01
2022-09-17T18:34:51.706Z,7.99
2022-09-17T18:39:58.580Z,7.99
2022-09-17T18:45:00.861Z,8.07
2022-09-17T18:50:02.484Z,8.13
2022-09-17T18:55:04.294Z,8.19
2022-09-17T19:00:08.391Z,8.22
2022-09-17T19:05:09.994Z,8.31
2022-09-17T19:10:11.822Z,8.63
2022-09-17T19:15:13.469Z,8.59
2022-09-17T19:20:15.511Z,8.16
2022-09-17T19:25:19.785Z,7.96
2022-09-17T19:30:22.221Z,7.69
2022-09-17T19:35:24.488Z,7.67
2022-09-17T19:40:26.166Z,7.59
2022-09-17T19:45:28.428Z,7.62
2022-09-17T19:50:33.368Z,7.55
2022-09-17T19:55:38.155Z,7.55
2022-09-17T20:00:40.259Z,7.58
2022-09-17T20:05:41.944Z,7.58
2022-09-17T20:10:44.012Z,7.57
2022-09-17T20:15:45.655Z,7.54
2022-09-17T20:20:47.578Z,7.52
2022-09-17T20:25:53.089Z,7.47
2022-09-17T20:31:02.377Z,7.43
2022-09-17T20:36:06.223Z,7.43
2022-09-17T20:41:10.302Z,7.43
2022-09-17T20:46:12.997Z,7.35
2022-09-17T20:51:17.015Z,7.33
2022-09-17T20:56:21.274Z,7.31
2022-09-17T21:01:25.572Z,7.28
2022-09-17T21:06:29.771Z,7.28
2022-09-17T21:11:32.171Z,7.30
2022-09-17T21:16:34.086Z,7.31
2022-09-17T21:21:35.740Z,7.33
2022-09-17T21:26:37.718Z,7.33
2022-09-17T21:31:39.549Z,7.35
2022-09-17T21:36:44.500Z,7.35
2022-09-17T21:41:48.077Z,7.33
2022-09-17T21:46:49.918Z,7.34
2022-09-17T21:51:51.669Z,7.34
2022-09-17T21:56:53.398Z,7.30
2022-09-17T22:01:55.107Z,7.31
2022-09-17T22:06:56.843Z,7.30
2022-09-17T22:11:59.719Z,7.33
2022-09-17T22:17:01.337Z,7.28
2022-09-17T22:22:02.976Z,7.04
2022-09-17T22:27:04.719Z,7.07
2022-09-17T22:32:06.465Z,7.10
2022-09-17T22:37:08.170Z,7.08
2022-09-17T22:42:09.931Z,7.08
2022-09-17T22:47:11.658Z,7.10
2022-09-17T22:52:13.422Z,7.10
2022-09-17T22:57:17.347Z,7.15
2022-09-17T23:02:19.151Z,7.12
2022-09-17T23:07:23.076Z,7.15
2022-09-17T23:12:24.894Z,7.06
2022-09-17T23:17:29.417Z,7.04
2022-09-17T23:22:31.452Z,7.06
2022-09-17T23:27:33.278Z,7.08
2022-09-17T23:32:35.056Z,7.09
2022-09-17T23:37:36.835Z,7.13
2022-09-17T23:42:38.587Z,7.12
2022-09-17T23:47:40.403Z,7.10
2022-09-17T23:52:42.423Z,7.13
2022-09-17T23:57:44.214Z,7.12
